sensor_id;sensor_type;location;lat;lon;timestamp;pressure;altitude;pressure_sealevel;temperature;humidity
26489;BME280;14169;43.684;10.484;2022-12-07T00:00:50;101327.66;;;12.25;100.00
26489;BME280;14169;43.684;10.484;2022-12-07T00:03:15;101316.41;;;12.22;100.00
26489;BME280;14169;43.684;10.484;2022-12-07T00:05:40;101326.06;;;12.20;100.00
26489;BME280;14169;43.684;10.484;2022-12-07T00:08:06;101320.03;;;12.18;100.00
26489;BME280;14169;43.684;10.484;2022-12-07T00:10:33;101321.75;;;12.19;100.00
26489;BME280;14169;43.684;10.484;2022-12-07T00:12:59;101316.56;;;12.17;100.00
26489;BME280;14169;43.684;10.484;2022-12-07T00:15:24;101321.00;;;12.15;100.00
26489;BME280;14169;43.684;10.484;2022-12-07T00:17:51;101314.16;;;12.10;100.00
26489;BME280;14169;43.684;10.484;2022-12-07T00:20:16;101308.13;;;12.08;100.00
26489;BME280;14169;43.684;10.484;2022-12-07T00:22:41;101316.81;;;12.08;100.00
26489;BME280;14169;43.684;10.484;2022-12-07T00:25:07;101309.75;;;12.12;100.00
26489;BME280;14169;43.684;10.484;2022-12-07T00:27:32;101303.66;;;12.13;100.00
26489;BME280;14169;43.684;10.484;2022-12-07T00:29:58;101295.88;;;12.11;100.00
26489;BME280;14169;43.684;10.484;2022-12-07T00:32:23;101295.00;;;12.11;100.00
26489;BME280;14169;43.684;10.484;2022-12-07T00:34:49;101297.66;;;12.09;100.00
26489;BME280;14169;43.684;10.484;2022-12-07T00:37:14;101295.88;;;12.10;100.00
26489;BME280;14169;43.684;10.484;2022-12-07T00:39:40;101291.56;;;12.09;100.00
26489;BME280;14169;43.684;10.484;2022-12-07T00:42:05;101289.81;;;12.09;100.00
26489;BME280;14169;43.684;10.484;2022-12-07T00:44:30;101293.31;;;12.08;100.00
26489;BME280;14169;43.684;10.484;2022-12-07T00:46:56;101294.19;;;12.09;100.00
26489;BME280;14169;43.684;10.484;2022-12-07T00:49:21;101290.75;;;12.07;100.00
26489;BME280;14169;43.684;10.484;2022-12-07T00:51:50;101296.00;;;12.07;100.00
26489;BME280;14169;43.684;10.484;2022-12-07T00:54:15;101301.28;;;12.04;100.00
26489;BME280;14169;43.684;10.484;2022-12-07T00:56:41;101302.31;;;11.98;100.00
26489;BME280;14169;43.684;10.484;2022-12-07T00:59:06;101301.56;;;11.93;100.00
26489;BME280;14169;43.684;10.484;2022-12-07T01:01:36;101299.91;;;11.91;100.00
26489;BME280;14169;43.684;10.484;2022-12-07T01:04:02;101305.19;;;11.89;100.00
26489;BME280;14169;43.684;10.484;2022-12-07T01:06:28;101300.84;;;11.88;100.00
26489;BME280;14169;43.684;10.484;2022-12-07T01:08:54;101307.78;;;11.89;100.00
26489;BME280;14169;43.684;10.484;2022-12-07T01:11:23;101304.22;;;11.92;100.00
26489;BME280;14169;43.684;10.484;2022-12-07T01:13:52;101297.28;;;11.91;100.00
26489;BME280;14169;43.684;10.484;2022-12-07T01:16:19;101302.44;;;11.94;100.00
26489;BME280;14169;43.684;10.484;2022-12-07T01:18:47;101304.16;;;11.95;100.00
26489;BME280;14169;43.684;10.484;2022-12-07T01:21:14;101303.25;;;11.97;100.00
26489;BME280;14169;43.684;10.484;2022-12-07T01:23:40;101305.84;;;11.97;100.00
26489;BME280;14169;43.684;10.484;2022-12-07T01:26:09;101305.84;;;11.97;100.00
26489;BME280;14169;43.684;10.484;2022-12-07T01:28:36;101307.66;;;11.95;100.00
26489;BME280;14169;43.684;10.484;2022-12-07T01:31:06;101309.34;;;11.96;100.00
26489;BME280;14169;43.684;10.484;2022-12-07T01:33:35;101307.53;;;11.98;100.00
26489;BME280;14169;43.684;10.484;2022-12-07T01:38:28;101302.38;;;11.97;100.00
26489;BME280;14169;43.684;10.484;2022-12-07T01:40:55;101303.25;;;11.97;100.00
26489;BME280;14169;43.684;10.484;2022-12-07T01:43:22;101305.84;;;11.97;100.00
26489;BME280;14169;43.684;10.484;2022-12-07T01:45:48;101300.63;;;11.97;100.00
26489;BME280;14169;43.684;10.484;2022-12-07T01:48:16;101297.16;;;11.97;100.00
26489;BME280;14169;43.684;10.484;2022-12-07T01:50:44;101298.84;;;11.98;100.00
26489;BME280;14169;43.684;10.484;2022-12-07T01:53:12;101291.97;;;11.95;100.00
26489;BME280;14169;43.684;10.484;2022-12-07T01:55:41;101281.56;;;11.94;100.00
26489;BME280;14169;43.684;10.484;2022-12-07T01:58:08;101282.41;;;11.94;100.00
26489;BME280;14169;43.684;10.484;2022-12-07T02:00:35;101278.97;;;11.92;100.00
26489;BME280;14169;43.684;10.484;2022-12-07T02:05:38;101274.66;;;11.91;100.00
26489;BME280;14169;43.684;10.484;2022-12-07T02:08:05;101272.94;;;11.90;100.00
26489;BME280;14169;43.684;10.484;2022-12-07T02:10:31;101273.84;;;11.89;100.00
26489;BME280;14169;43.684;10.484;2022-12-07T02:13:13;101286.91;;;11.89;100.00
26489;BME280;14169;43.684;10.484;2022-12-07T02:24:15;101272.16;;;11.87;100.00
26489;BME280;14169;43.684;10.484;2022-12-07T02:30:04;101258.31;;;11.85;100.00
26489;BME280;14169;43.684;10.484;2022-12-07T02:35:28;101256.50;;;11.87;100.00
26489;BME280;14169;43.684;10.484;2022-12-07T02:38:28;101253.84;;;11.88;100.00
26489;BME280;14169;43.684;10.484;2022-12-07T02:41:07;101253.09;;;11.85;100.00
26489;BME280;14169;43.684;10.484;2022-12-07T02:43:38;101248.75;;;11.83;100.00
26489;BME280;14169;43.684;10.484;2022-12-07T02:46:11;101251.34;;;11.83;100.00
26489;BME280;14169;43.684;10.484;2022-12-07T02:48:39;101250.53;;;11.81;100.00
26489;BME280;14169;43.684;10.484;2022-12-07T02:51:06;101247.09;;;11.81;100.00
26489;BME280;14169;43.684;10.484;2022-12-07T02:53:33;101253.25;;;11.78;100.00
26489;BME280;14169;43.684;10.484;2022-12-07T02:56:04;101250.75;;;11.75;100.00
26489;BME280;14169;43.684;10.484;2022-12-07T02:58:42;101242.19;;;11.70;100.00
26489;BME280;14169;43.684;10.484;2022-12-07T03:01:52;101251.09;;;11.63;100.00
26489;BME280;14169;43.684;10.484;2022-12-07T03:07:25;101242.66;;;11.54;100.00
26489;BME280;14169;43.684;10.484;2022-12-07T03:12:31;101244.59;;;11.47;100.00
26489;BME280;14169;43.684;10.484;2022-12-07T03:15:09;101237.75;;;11.43;100.00
26489;BME280;14169;43.684;10.484;2022-12-07T03:17:39;101242.16;;;11.41;100.00
26489;BME280;14169;43.684;10.484;2022-12-07T03:20:09;101236.13;;;11.39;100.00
26489;BME280;14169;43.684;10.484;2022-12-07T03:22:38;101239.59;;;11.38;100.00
26489;BME280;14169;43.684;10.484;2022-12-07T03:25:10;101235.38;;;11.34;100.00
26489;BME280;14169;43.684;10.484;2022-12-07T03:27:43;101243.16;;;11.36;100.00
26489;BME280;14169;43.684;10.484;2022-12-07T03:30:15;101237.97;;;11.34;100.00
26489;BME280;14169;43.684;10.484;2022-12-07T03:40:44;101230.19;;;11.33;100.00
26489;BME280;14169;43.684;10.484;2022-12-07T03:43:15;101234.50;;;11.35;100.00
26489;BME280;14169;43.684;10.484;2022-12-07T03:45:44;101237.91;;;11.37;100.00
26489;BME280;14169;43.684;10.484;2022-12-07T03:48:31;101236.13;;;11.39;100.00
26489;BME280;14169;43.684;10.484;2022-12-07T03:53:42;101236.00;;;11.42;100.00
26489;BME280;14169;43.684;10.484;2022-12-07T03:56:10;101234.22;;;11.44;100.00
26489;BME280;14169;43.684;10.484;2022-12-07T03:58:38;101240.34;;;11.43;100.00
26489;BME280;14169;43.684;10.484;2022-12-07T04:01:04;101231.72;;;11.41;100.00
26489;BME280;14169;43.684;10.484;2022-12-07T04:03:30;101233.50;;;11.39;100.00
26489;BME280;14169;43.684;10.484;2022-12-07T04:05:55;101225.84;;;11.33;100.00
26489;BME280;14169;43.684;10.484;2022-12-07T04:08:21;101217.28;;;11.28;100.00
26489;BME280;14169;43.684;10.484;2022-12-07T04:10:46;101225.16;;;11.27;100.00
26489;BME280;14169;43.684;10.484;2022-12-07T04:13:12;101220.03;;;11.22;100.00
26489;BME280;14169;43.684;10.484;2022-12-07T04:15:37;101209.72;;;11.19;100.00
26489;BME280;14169;43.684;10.484;2022-12-07T04:18:03;101219.16;;;11.23;100.00
26489;BME280;14169;43.684;10.484;2022-12-07T04:20:28;101212.28;;;11.21;100.00
26489;BME280;14169;43.684;10.484;2022-12-07T04:22:53;101214.88;;;11.21;100.00
26489;BME280;14169;43.684;10.484;2022-12-07T04:25:19;101213.94;;;11.23;100.00
26489;BME280;14169;43.684;10.484;2022-12-07T04:27:44;101214.06;;;11.19;100.00
26489;BME280;14169;43.684;10.484;2022-12-07T04:30:10;101212.47;;;11.13;100.00
26489;BME280;14169;43.684;10.484;2022-12-07T04:32:35;101215.09;;;11.13;100.00
26489;BME280;14169;43.684;10.484;2022-12-07T04:35:02;101209.88;;;11.13;100.00
26489;BME280;14169;43.684;10.484;2022-12-07T04:37:27;101214.22;;;11.13;100.00
26489;BME280;14169;43.684;10.484;2022-12-07T04:39:53;101214.22;;;11.13;100.00
26489;BME280;14169;43.684;10.484;2022-12-07T04:42:18;101211.78;;;11.07;100.00
26489;BME280;14169;43.684;10.484;2022-12-07T04:44:44;101212.69;;;11.06;100.00
26489;BME280;14169;43.684;10.484;2022-12-07T04:47:09;101217.19;;;10.99;100.00
26489;BME280;14169;43.684;10.484;2022-12-07T04:49:35;101214.69;;;10.94;100.00
26489;BME280;14169;43.684;10.484;2022-12-07T04:52:00;101215.72;;;10.89;100.00
26489;BME280;14169;43.684;10.484;2022-12-07T04:54:26;101202.81;;;10.84;100.00
26489;BME280;14169;43.684;10.484;2022-12-07T04:56:51;101204.59;;;10.82;100.00
26489;BME280;14169;43.684;10.484;2022-12-07T04:59:17;101198.44;;;10.85;100.00
26489;BME280;14169;43.684;10.484;2022-12-07T05:01:43;101202.06;;;10.79;100.00
26489;BME280;14169;43.684;10.484;2022-12-07T05:04:08;101201.38;;;10.73;100.00
26489;BME280;14169;43.684;10.484;2022-12-07T05:06:34;101197.06;;;10.70;100.00
26489;BME280;14169;43.684;10.484;2022-12-07T05:08:59;101198.16;;;10.63;100.00
26489;BME280;14169;43.684;10.484;2022-12-07T05:11:25;101193.09;;;10.57;100.00
26489;BME280;14169;43.684;10.484;2022-12-07T05:14:14;101191.41;;;10.52;100.00
26489;BME280;14169;43.684;10.484;2022-12-07T05:16:41;101189.72;;;10.51;100.00
26489;BME280;14169;43.684;10.484;2022-12-07T05:19:07;101184.53;;;10.51;100.00
26489;BME280;14169;43.684;10.484;2022-12-07T05:21:32;101190.50;;;10.56;100.00
26489;BME280;14169;43.684;10.484;2022-12-07T05:23:58;101185.16;;;10.60;100.00
26489;BME280;14169;43.684;10.484;2022-12-07T05:26:23;101193.00;;;10.60;100.00
26489;BME280;14169;43.684;10.484;2022-12-07T05:28:53;101192.22;;;10.55;100.00
26489;BME280;14169;43.684;10.484;2022-12-07T05:31:20;101183.59;;;10.52;100.00
26489;BME280;14169;43.684;10.484;2022-12-07T05:33:46;101189.84;;;10.46;100.00
26489;BME280;14169;43.684;10.484;2022-12-07T05:36:12;101195.22;;;10.39;100.00
26489;BME280;14169;43.684;10.484;2022-12-07T05:38:37;101193.63;;;10.33;100.00
26489;BME280;14169;43.684;10.484;2022-12-07T05:41:05;101191.94;;;10.31;100.00
26489;BME280;14169;43.684;10.484;2022-12-07T05:43:31;101188.53;;;10.29;100.00
26489;BME280;14169;43.684;10.484;2022-12-07T05:45:57;101187.72;;;10.27;100.00
26489;BME280;14169;43.684;10.484;2022-12-07T05:48:23;101188.63;;;10.24;100.00
26489;BME280;14169;43.684;10.484;2022-12-07T05:50:49;101189.72;;;10.16;100.00
26489;BME280;14169;43.684;10.484;2022-12-07T05:53:15;101195.03;;;10.11;100.00
26489;BME280;14169;43.684;10.484;2022-12-07T05:55:40;101192.69;;;9.99;100.00
26489;BME280;14169;43.684;10.484;2022-12-07T05:58:06;101195.34;;;9.96;100.00
26489;BME280;14169;43.684;10.484;2022-12-07T06:00:50;101204.94;;;9.94;100.00
26489;BME280;14169;43.684;10.484;2022-12-07T06:03:15;101206.69;;;9.93;100.00
26489;BME280;14169;43.684;10.484;2022-12-07T06:05:41;101204.06;;;9.95;100.00
26489;BME280;14169;43.684;10.484;2022-12-07T06:08:07;101210.19;;;9.92;100.00
26489;BME280;14169;43.684;10.484;2022-12-07T06:10:32;101216.34;;;9.88;100.00
26489;BME280;14169;43.684;10.484;2022-12-07T06:12:57;101219.94;;;9.83;100.00
26489;BME280;14169;43.684;10.484;2022-12-07T06:15:23;101230.28;;;9.84;100.00
26489;BME280;14169;43.684;10.484;2022-12-07T06:17:48;101218.19;;;9.83;100.00
26489;BME280;14169;43.684;10.484;2022-12-07T06:20:14;101216.41;;;9.85;100.00
26489;BME280;14169;43.684;10.484;2022-12-07T06:22:39;101223.44;;;9.82;100.00
26489;BME280;14169;43.684;10.484;2022-12-07T06:25:05;101221.66;;;9.82;100.00
26489;BME280;14169;43.684;10.484;2022-12-07T06:27:32;101234.72;;;9.81;100.00
26489;BME280;14169;43.684;10.484;2022-12-07T06:29:58;101231.22;;;9.83;100.00
26489;BME280;14169;43.684;10.484;2022-12-07T06:32:23;101236.44;;;9.80;100.00
26489;BME280;14169;43.684;10.484;2022-12-07T06:34:49;101238.19;;;9.81;100.00
26489;BME280;14169;43.684;10.484;2022-12-07T06:37:14;101246.00;;;9.81;100.00
26489;BME280;14169;43.684;10.484;2022-12-07T06:39:39;101244.22;;;9.83;100.00
26489;BME280;14169;43.684;10.484;2022-12-07T06:42:05;101249.41;;;9.83;100.00
26489;BME280;14169;43.684;10.484;2022-12-07T06:44:30;101252.75;;;9.88;100.00
26489;BME280;14169;43.684;10.484;2022-12-07T06:46:56;101255.38;;;9.88;100.00
26489;BME280;14169;43.684;10.484;2022-12-07T06:49:21;101265.75;;;9.90;100.00
26489;BME280;14169;43.684;10.484;2022-12-07T06:51:47;101268.38;;;9.88;100.00
26489;BME280;14169;43.684;10.484;2022-12-07T06:54:14;101261.47;;;9.87;100.00
26489;BME280;14169;43.684;10.484;2022-12-07T06:56:40;101267.50;;;9.88;100.00
26489;BME280;14169;43.684;10.484;2022-12-07T06:59:05;101272.59;;;9.94;100.00
26489;BME280;14169;43.684;10.484;2022-12-07T07:01:32;101276.84;;;9.98;100.00
26489;BME280;14169;43.684;10.484;2022-12-07T07:03:58;101277.00;;;9.90;100.00
26489;BME280;14169;43.684;10.484;2022-12-07T07:06:23;101277.94;;;9.88;100.00
26489;BME280;14169;43.684;10.484;2022-12-07T07:08:49;101279.63;;;9.90;100.00
26489;BME280;14169;43.684;10.484;2022-12-07T07:11:15;101287.38;;;9.93;100.00
26489;BME280;14169;43.684;10.484;2022-12-07T07:13:40;101283.81;;;9.97;100.00
26489;BME280;14169;43.684;10.484;2022-12-07T07:16:06;101292.38;;;10.02;100.00
26489;BME280;14169;43.684;10.484;2022-12-07T07:18:32;101293.16;;;10.07;100.00
26489;BME280;14169;43.684;10.484;2022-12-07T07:20:58;101302.53;;;10.15;100.00
26489;BME280;14169;43.684;10.484;2022-12-07T07:23:24;101300.72;;;10.20;100.00
26489;BME280;14169;43.684;10.484;2022-12-07T07:25:49;101308.38;;;10.26;100.00
26489;BME280;14169;43.684;10.484;2022-12-07T07:28:15;101311.69;;;10.32;100.00
26489;BME280;14169;43.684;10.484;2022-12-07T07:30:41;101312.44;;;10.39;100.00
26489;BME280;14169;43.684;10.484;2022-12-07T07:33:06;101319.22;;;10.46;100.00
26489;BME280;14169;43.684;10.484;2022-12-07T07:35:33;101326.88;;;10.52;100.00
26489;BME280;14169;43.684;10.484;2022-12-07T07:37:59;101325.94;;;10.57;100.00
26489;BME280;14169;43.684;10.484;2022-12-07T07:40:25;101331.97;;;10.59;100.00
26489;BME280;14169;43.684;10.484;2022-12-07T07:42:52;101331.03;;;10.63;100.00
26489;BME280;14169;43.684;10.484;2022-12-07T07:45:19;101339.63;;;10.67;100.00
26489;BME280;14169;43.684;10.484;2022-12-07T07:47:44;101345.69;;;10.67;100.00
26489;BME280;14169;43.684;10.484;2022-12-07T07:50:10;101347.34;;;10.71;100.00
26489;BME280;14169;43.684;10.484;2022-12-07T07:52:36;101353.38;;;10.73;100.00
26489;BME280;14169;43.684;10.484;2022-12-07T07:55:01;101346.34;;;10.77;100.00
26489;BME280;14169;43.684;10.484;2022-12-07T07:57:27;101349.75;;;10.79;100.00
26489;BME280;14169;43.684;10.484;2022-12-07T07:59:53;101349.81;;;10.76;100.00
26489;BME280;14169;43.684;10.484;2022-12-07T08:02:20;101358.50;;;10.76;100.00
26489;BME280;14169;43.684;10.484;2022-12-07T08:04:46;101363.72;;;10.76;100.00
26489;BME280;14169;43.684;10.484;2022-12-07T08:07:12;101353.38;;;10.73;100.00
26489;BME280;14169;43.684;10.484;2022-12-07T08:09:38;101357.72;;;10.73;100.00
26489;BME280;14169;43.684;10.484;2022-12-07T08:12:04;101359.28;;;10.80;100.00
26489;BME280;14169;43.684;10.484;2022-12-07T08:14:30;101369.50;;;10.89;100.00
26489;BME280;14169;43.684;10.484;2022-12-07T08:16:55;101356.09;;;11.04;100.00
26489;BME280;14169;43.684;10.484;2022-12-07T08:19:21;101366.38;;;11.10;100.00
26489;BME280;14169;43.684;10.484;2022-12-07T08:21:46;101368.22;;;11.07;100.00
26489;BME280;14169;43.684;10.484;2022-12-07T08:24:13;101365.28;;;11.20;100.00
26489;BME280;14169;43.684;10.484;2022-12-07T08:26:39;101376.63;;;11.18;100.00
26489;BME280;14169;43.684;10.484;2022-12-07T08:29:05;101363.53;;;11.21;100.00
26489;BME280;14169;43.684;10.484;2022-12-07T08:31:30;101360.88;;;11.22;100.00
26489;BME280;14169;43.684;10.484;2022-12-07T08:33:55;101360.00;;;11.22;100.00
26489;BME280;14169;43.684;10.484;2022-12-07T08:36:22;101354.84;;;11.20;100.00
26489;BME280;14169;43.684;10.484;2022-12-07T08:38:48;101360.88;;;11.22;100.00
26489;BME280;14169;43.684;10.484;2022-12-07T08:41:13;101353.88;;;11.24;100.00
26489;BME280;14169;43.684;10.484;2022-12-07T08:43:41;101356.22;;;11.35;100.00
26489;BME280;14169;43.684;10.484;2022-12-07T08:46:32;101356.84;;;11.44;100.00
26489;BME280;14169;43.684;10.484;2022-12-07T08:49:02;101351.47;;;11.50;100.00
26489;BME280;14169;43.684;10.484;2022-12-07T08:51:29;101352.97;;;11.59;100.00
26489;BME280;14169;43.684;10.484;2022-12-07T08:53:55;101346.03;;;11.59;100.00
26489;BME280;14169;43.684;10.484;2022-12-07T08:56:22;101344.91;;;11.68;100.00
26489;BME280;14169;43.684;10.484;2022-12-07T08:58:48;101348.84;;;11.82;100.00
26489;BME280;14169;43.684;10.484;2022-12-07T09:01:14;101348.00;;;11.82;100.00
26489;BME280;14169;43.684;10.484;2022-12-07T09:03:39;101353.16;;;11.83;100.00
26489;BME280;14169;43.684;10.484;2022-12-07T09:06:05;101354.34;;;11.73;100.00
26489;BME280;14169;43.684;10.484;2022-12-07T09:08:35;101352.63;;;11.72;100.00
26489;BME280;14169;43.684;10.484;2022-12-07T09:11:01;101354.25;;;11.76;100.00
26489;BME280;14169;43.684;10.484;2022-12-07T09:13:27;101352.56;;;11.75;100.00
26489;BME280;14169;43.684;10.484;2022-12-07T09:15:52;101359.56;;;11.73;100.00
26489;BME280;14169;43.684;10.484;2022-12-07T09:18:18;101360.34;;;11.77;100.00
26489;BME280;14169;43.684;10.484;2022-12-07T09:20:43;101362.78;;;11.83;100.00
26489;BME280;14169;43.684;10.484;2022-12-07T09:23:09;101368.59;;;11.94;100.00
26489;BME280;14169;43.684;10.484;2022-12-07T09:25:35;101369.94;;;12.09;100.00
26489;BME280;14169;43.684;10.484;2022-12-07T09:28:00;101369.34;;;12.28;100.00
26489;BME280;14169;43.684;10.484;2022-12-07T09:30:27;101371.66;;;12.39;100.00
26489;BME280;14169;43.684;10.484;2022-12-07T09:32:53;101374.50;;;12.60;100.00
26489;BME280;14169;43.684;10.484;2022-12-07T09:35:19;101375.00;;;12.73;100.00
26489;BME280;14169;43.684;10.484;2022-12-07T09:37:44;101369.22;;;12.90;100.00
26489;BME280;14169;43.684;10.484;2022-12-07T09:40:10;101360.09;;;13.03;100.00
26489;BME280;14169;43.684;10.484;2022-12-07T09:42:38;101346.28;;;12.99;100.00
26489;BME280;14169;43.684;10.484;2022-12-07T09:45:19;101348.72;;;13.04;100.00
26489;BME280;14169;43.684;10.484;2022-12-07T09:47:46;101347.81;;;13.82;100.00
26489;BME280;14169;43.684;10.484;2022-12-07T09:50:30;101347.78;;;14.76;100.00
26489;BME280;14169;43.684;10.484;2022-12-07T09:53:25;101340.69;;;15.43;100.00
26489;BME280;14169;43.684;10.484;2022-12-07T09:55:48;101332.63;;;16.06;100.00
26489;BME280;14169;43.684;10.484;2022-12-07T09:58:28;101322.06;;;16.26;100.00
26489;BME280;14169;43.684;10.484;2022-12-07T10:03:33;101311.88;;;17.10;100.00
26489;BME280;14169;43.684;10.484;2022-12-07T10:06:00;101307.19;;;17.34;100.00
26489;BME280;14169;43.684;10.484;2022-12-07T10:08:25;101313.88;;;17.74;100.00
26489;BME280;14169;43.684;10.484;2022-12-07T10:10:54;101303.75;;;17.49;100.00
26489;BME280;14169;43.684;10.484;2022-12-07T10:16:04;101285.19;;;17.52;100.00
26489;BME280;14169;43.684;10.484;2022-12-07T10:18:33;101290.94;;;17.76;100.00
26489;BME280;14169;43.684;10.484;2022-12-07T10:21:17;101290.72;;;17.80;100.00
26489;BME280;14169;43.684;10.484;2022-12-07T10:29:30;101323.38;;;19.04;100.00
26489;BME280;14169;43.684;10.484;2022-12-07T10:32:29;101318.94;;;19.04;100.00
26489;BME280;14169;43.684;10.484;2022-12-07T10:35:19;101342.03;;;19.16;100.00
26489;BME280;14169;43.684;10.484;2022-12-07T10:37:45;101344.91;;;19.57;100.00
26489;BME280;14169;43.684;10.484;2022-12-07T10:40:30;101342.56;;;19.67;100.00
26489;BME280;14169;43.684;10.484;2022-12-07T10:43:20;101309.53;;;19.88;100.00
26489;BME280;14169;43.684;10.484;2022-12-07T10:46:10;101281.84;;;20.36;100.00
26489;BME280;14169;43.684;10.484;2022-12-07T10:49:18;101253.66;;;20.75;100.00
26489;BME280;14169;43.684;10.484;2022-12-07T10:51:52;101210.69;;;20.97;100.00
26489;BME280;14169;43.684;10.484;2022-12-07T11:00:03;101158.75;;;21.45;100.00
26489;BME280;14169;43.684;10.484;2022-12-07T11:07:33;101150.50;;;22.34;100.00
26489;BME280;14169;43.684;10.484;2022-12-07T11:12:47;101145.47;;;22.42;100.00
26489;BME280;14169;43.684;10.484;2022-12-07T11:18:29;101142.50;;;22.58;97.47
26489;BME280;14169;43.684;10.484;2022-12-07T11:21:06;101144.38;;;22.80;93.88
26489;BME280;14169;43.684;10.484;2022-12-07T11:23:49;101138.50;;;22.87;85.41
26489;BME280;14169;43.684;10.484;2022-12-07T11:26:32;101129.22;;;23.04;81.12
26489;BME280;14169;43.684;10.484;2022-12-07T11:29:15;101126.00;;;23.11;85.50
26489;BME280;14169;43.684;10.484;2022-12-07T11:37:21;101113.06;;;22.61;79.97
26489;BME280;14169;43.684;10.484;2022-12-07T11:39:51;101112.81;;;22.64;77.62
26489;BME280;14169;43.684;10.484;2022-12-07T11:42:29;101105.19;;;22.94;81.72
26489;BME280;14169;43.684;10.484;2022-12-07T11:45:03;101102.91;;;23.01;78.77
26489;BME280;14169;43.684;10.484;2022-12-07T11:47:45;101106.41;;;23.34;78.18
26489;BME280;14169;43.684;10.484;2022-12-07T11:50:25;101102.31;;;23.64;77.19
26489;BME280;14169;43.684;10.484;2022-12-07T11:53:01;101106.75;;;23.52;69.52
26489;BME280;14169;43.684;10.484;2022-12-07T12:01:00;101089.97;;;23.40;73.51
26489;BME280;14169;43.684;10.484;2022-12-07T12:03:34;101089.34;;;23.59;71.60
26489;BME280;14169;43.684;10.484;2022-12-07T12:06:01;101084.66;;;23.40;69.80
26489;BME280;14169;43.684;10.484;2022-12-07T12:08:38;101082.13;;;23.06;68.35
26489;BME280;14169;43.684;10.484;2022-12-07T12:11:13;101081.03;;;23.30;71.93
26489;BME280;14169;43.684;10.484;2022-12-07T12:16:58;101073.41;;;23.59;73.75
26489;BME280;14169;43.684;10.484;2022-12-07T12:22:03;101075.41;;;24.52;66.05
26489;BME280;14169;43.684;10.484;2022-12-07T12:24:32;101070.75;;;24.02;64.04
26489;BME280;14169;43.684;10.484;2022-12-07T12:27:05;101063.03;;;23.45;63.80
26489;BME280;14169;43.684;10.484;2022-12-07T12:29:33;101070.13;;;22.89;71.28
26489;BME280;14169;43.684;10.484;2022-12-07T12:32:20;101056.50;;;22.48;74.70
26489;BME280;14169;43.684;10.484;2022-12-07T12:42:53;101049.81;;;24.08;59.04
26489;BME280;14169;43.684;10.484;2022-12-07T12:47:58;101047.28;;;23.53;65.66
26489;BME280;14169;43.684;10.484;2022-12-07T12:52:58;101045.22;;;23.57;63.73
26489;BME280;14169;43.684;10.484;2022-12-07T12:55:45;101037.50;;;23.42;66.44
26489;BME280;14169;43.684;10.484;2022-12-07T13:00:42;101041.00;;;23.65;65.62
26489;BME280;14169;43.684;10.484;2022-12-07T13:03:22;101033.28;;;23.40;68.03
26489;BME280;14169;43.684;10.484;2022-12-07T13:08:49;101029.50;;;23.65;62.94
26489;BME280;14169;43.684;10.484;2022-12-07T13:13:50;101027.81;;;23.64;65.57
26489;BME280;14169;43.684;10.484;2022-12-07T13:16:36;101026.31;;;23.82;61.86
26489;BME280;14169;43.684;10.484;2022-12-07T13:19:01;101031.47;;;23.94;63.16
26489;BME280;14169;43.684;10.484;2022-12-07T13:23:57;101025.91;;;23.97;61.89
26489;BME280;14169;43.684;10.484;2022-12-07T13:29:16;101030.81;;;23.70;65.22
26489;BME280;14169;43.684;10.484;2022-12-07T13:31:47;101027.81;;;23.64;64.16
26489;BME280;14169;43.684;10.484;2022-12-07T13:34:32;101024.22;;;23.42;66.80
26489;BME280;14169;43.684;10.484;2022-12-07T13:37:00;101011.97;;;23.73;62.89
26489;BME280;14169;43.684;10.484;2022-12-07T13:39:27;101014.88;;;23.48;62.16
26489;BME280;14169;43.684;10.484;2022-12-07T13:41:57;101016.44;;;23.50;65.58
26489;BME280;14169;43.684;10.484;2022-12-07T13:44:25;101013.44;;;23.44;62.32
26489;BME280;14169;43.684;10.484;2022-12-07T13:46:57;101015.00;;;23.46;60.71
26489;BME280;14169;43.684;10.484;2022-12-07T13:49:27;101014.91;;;23.91;56.78
26489;BME280;14169;43.684;10.484;2022-12-07T13:51:54;101015.22;;;24.50;55.42
26489;BME280;14169;43.684;10.484;2022-12-07T13:54:21;101009.66;;;24.53;54.56
26489;BME280;14169;43.684;10.484;2022-12-07T13:56:50;101019.81;;;24.68;54.58
26489;BME280;14169;43.684;10.484;2022-12-07T13:59:22;101007.69;;;24.34;53.38
26489;BME280;14169;43.684;10.484;2022-12-07T14:01:50;101011.22;;;24.55;55.79
26489;BME280;14169;43.684;10.484;2022-12-07T14:04:17;100998.06;;;24.63;55.06
26489;BME280;14169;43.684;10.484;2022-12-07T14:06:51;101005.59;;;24.58;49.94
26489;BME280;14169;43.684;10.484;2022-12-07T14:09:19;101014.41;;;24.17;51.44
26489;BME280;14169;43.684;10.484;2022-12-07T14:11:47;101006.41;;;24.17;54.93
26489;BME280;14169;43.684;10.484;2022-12-07T14:14:18;101006.41;;;23.97;54.55
26489;BME280;14169;43.684;10.484;2022-12-07T14:16:56;101007.31;;;23.86;57.17
26489;BME280;14169;43.684;10.484;2022-12-07T14:24:57;101010.53;;;23.47;57.24
26489;BME280;14169;43.684;10.484;2022-12-07T14:27:24;101007.22;;;23.77;58.06
26489;BME280;14169;43.684;10.484;2022-12-07T14:29:55;101005.56;;;23.65;58.75
26489;BME280;14169;43.684;10.484;2022-12-07T14:32:26;101001.09;;;23.65;60.45
26489;BME280;14169;43.684;10.484;2022-12-07T14:35:17;101002.78;;;23.98;58.58